createdAt,value
2019-04-27T00:02:24.793Z,23.45
2019-04-27T00:05:00.834Z,22.98
2019-04-27T00:07:37.720Z,19.37
2019-04-27T00:10:20.368Z,21.25
2019-04-27T00:12:53.052Z,20.52
2019-04-27T00:15:36.464Z,21.75
2019-04-27T00:18:38.166Z,22.40
2019-04-27T00:21:17.452Z,20.62
2019-04-27T00:23:48.107Z,23.73
2019-04-27T00:26:18.751Z,20.40
2019-04-27T00:28:50.103Z,29.10
2019-04-27T00:31:21.395Z,28.12
2019-04-27T00:33:50.850Z,24.00
2019-04-27T00:36:30.358Z,23.80
2019-04-27T00:39:27.309Z,19.55
2019-04-27T00:44:46.940Z,27.32
2019-04-27T00:50:03.576Z,22.57
2019-04-27T00:52:32.588Z,24.77
2019-04-27T00:55:04.759Z,22.77
2019-04-27T00:57:59.475Z,36.33
2019-04-27T01:00:47.963Z,28.23
2019-04-27T01:03:39.574Z,27.98
2019-04-27T01:06:13.074Z,23.77
2019-04-27T01:08:54.969Z,25.25
2019-04-27T01:11:25.120Z,21.33
2019-04-27T01:13:58.351Z,24.75
2019-04-27T01:16:42.707Z,25.68
2019-04-27T01:19:16.047Z,24.25
2019-04-27T01:21:41.013Z,31.15
2019-04-27T01:24:15.553Z,21.73
2019-04-27T01:27:10.363Z,18.92
2019-04-27T01:29:50.015Z,25.30
2019-04-27T01:32:20.667Z,22.98
2019-04-27T01:34:50.500Z,34.40
2019-04-27T01:37:21.218Z,23.47
2019-04-27T01:39:50.968Z,24.85
2019-04-27T01:42:20.498Z,20.45
2019-04-27T01:44:51.063Z,32.88
2019-04-27T01:47:23.002Z,23.67
2019-04-27T01:49:52.932Z,24.67
2019-04-27T01:52:22.424Z,23.05
2019-04-27T01:54:52.063Z,27.32
2019-04-27T01:57:22.133Z,19.40
2019-04-27T01:59:51.631Z,21.57
2019-04-27T02:02:34.521Z,23.60
2019-04-27T02:05:21.769Z,21.17
2019-04-27T02:07:51.370Z,24.83
2019-04-27T02:13:30.986Z,22.73
2019-04-27T02:16:05.567Z,23.23
2019-04-27T02:18:40.720Z,19.25
2019-04-27T02:21:09.108Z,25.27
2019-04-27T02:23:41.742Z,26.77
2019-04-27T02:26:14.764Z,22.22
2019-04-27T02:29:08.755Z,26.33
2019-04-27T02:32:39.763Z,21.20
2019-04-27T02:35:13.711Z,23.30
2019-04-27T02:37:47.021Z,21.35
2019-04-27T02:40:55.164Z,28.07
2019-04-27T02:43:44.195Z,26.10
2019-04-27T02:46:13.872Z,24.57
2019-04-27T02:51:49.449Z,22.83
2019-04-27T02:54:14.376Z,22.85
2019-04-27T02:57:19.447Z,23.38
2019-04-27T02:59:50.379Z,18.67
2019-04-27T03:02:29.949Z,27.03
2019-04-27T03:05:01.343Z,22.85
2019-04-27T03:07:42.703Z,20.62
2019-04-27T03:10:12.611Z,19.73
2019-04-27T03:15:30.575Z,31.68
2019-04-27T03:18:36.356Z,20.50
2019-04-27T03:21:31.010Z,25.30
2019-04-27T03:24:04.016Z,21.03
2019-04-27T03:27:20.053Z,28.43
2019-04-27T03:35:35.127Z,21.23
2019-04-27T03:38:03.440Z,25.15
2019-04-27T03:40:33.450Z,26.42
2019-04-27T03:43:20.376Z,23.75
2019-04-27T03:46:00.203Z,25.07
2019-04-27T03:48:34.994Z,26.10
2019-04-27T03:51:40.350Z,25.90
2019-04-27T03:54:29.670Z,32.35
2019-04-27T03:57:12.642Z,28.90
2019-04-27T04:00:00.920Z,23.65
2019-04-27T04:02:41.279Z,19.98
2019-04-27T04:05:14.524Z,25.60
2019-04-27T04:07:50.026Z,18.80
2019-04-27T04:10:19.790Z,23.60
2019-04-27T04:13:22.569Z,20.62
2019-04-27T04:16:49.710Z,29.23
2019-04-27T04:19:00.923Z,18.70
2019-04-27T04:21:32.669Z,17.87
2019-04-27T04:24:02.269Z,19.80
2019-04-27T04:26:39.924Z,23.40
2019-04-27T04:29:16.141Z,22.13
2019-04-27T04:31:50.469Z,25.57
2019-04-27T04:34:23.806Z,23.87
2019-04-27T04:36:55.855Z,21.42
2019-04-27T04:39:29.558Z,26.07
2019-04-27T04:42:33.035Z,28.12
2019-04-27T04:45:30.403Z,28.35
2019-04-27T04:48:09.807Z,28.77
2019-04-27T04:50:40.540Z,26.25
2019-04-27T04:53:13.364Z,26.55
2019-04-27T04:59:09.937Z,30.97
2019-04-27T05:01:39.935Z,27.02
2019-04-27T05:04:09.590Z,31.75
2019-04-27T05:06:39.133Z,22.25
2019-04-27T05:09:09.343Z,35.83
2019-04-27T05:11:42.388Z,27.52
2019-04-27T05:14:28.797Z,25.72
2019-04-27T05:16:59.230Z,25.32
2019-04-27T05:19:32.767Z,25.57
2019-04-27T05:22:07.103Z,33.73
2019-04-27T05:24:39.395Z,23.07
2019-04-27T05:27:10.161Z,19.75
2019-04-27T05:29:39.792Z,28.70
2019-04-27T05:32:11.740Z,23.42
2019-04-27T05:34:44.719Z,20.57
2019-04-27T05:37:14.385Z,22.65
2019-04-27T05:39:55.568Z,24.18
2019-04-27T05:42:26.504Z,24.70
2019-04-27T05:45:09.288Z,19.15
2019-04-27T05:47:48.488Z,23.62
2019-04-27T05:50:20.105Z,20.50
2019-04-27T05:52:49.527Z,20.20
2019-04-27T05:55:19.268Z,17.40
2019-04-27T05:57:49.117Z,21.23
2019-04-27T06:00:20.405Z,13.93
2019-04-27T06:02:49.882Z,29.48
2019-04-27T06:05:22.498Z,26.30
2019-04-27T06:07:50.827Z,21.62
2019-04-27T06:10:20.312Z,25.72
2019-04-27T06:12:49.872Z,22.35
2019-04-27T06:15:19.860Z,25.00
2019-04-27T06:17:49.624Z,19.57
2019-04-27T06:20:20.265Z,19.40
2019-04-27T06:23:30.119Z,18.65
2019-04-27T06:25:56.329Z,23.38
2019-04-27T06:28:29.317Z,23.50
2019-04-27T06:31:01.078Z,17.87
2019-04-27T06:33:56.529Z,21.33
2019-04-27T06:36:28.935Z,25.77
2019-04-27T06:38:59.002Z,16.62
2019-04-27T06:41:32.172Z,19.00
2019-04-27T06:44:05.112Z,16.75
2019-04-27T06:46:40.334Z,20.15
2019-04-27T06:49:19.423Z,26.30
2019-04-27T06:52:00.813Z,23.60
2019-04-27T06:54:30.325Z,33.70
2019-04-27T06:57:03.412Z,24.85
2019-04-27T06:59:33.128Z,28.10
2019-04-27T07:02:02.769Z,31.93
2019-04-27T07:04:35.377Z,33.10
2019-04-27T07:07:19.365Z,36.42
2019-04-27T07:09:54.620Z,31.73
2019-04-27T07:18:21.587Z,39.25
2019-04-27T07:20:50.324Z,36.05
2019-04-27T07:23:23.195Z,36.60
2019-04-27T07:26:06.806Z,33.13
2019-04-27T07:28:36.541Z,36.95
2019-04-27T07:31:09.627Z,46.45
2019-04-27T07:33:42.609Z,35.00
2019-04-27T07:36:49.134Z,37.65
2019-04-27T07:39:30.149Z,38.48
2019-04-27T07:42:11.742Z,40.25
2019-04-27T07:45:03.003Z,39.20
2019-04-27T07:47:35.692Z,37.30
2019-04-27T07:50:14.218Z,38.42
2019-04-27T07:52:54.869Z,37.10
2019-04-27T07:55:28.733Z,37.08
2019-04-27T07:58:05.077Z,43.02
2019-04-27T08:00:37.445Z,38.85
2019-04-27T08:03:06.112Z,37.85
2019-04-27T08:05:40.390Z,32.75
2019-04-27T08:08:29.638Z,39.25
2019-04-27T08:11:01.351Z,34.92
2019-04-27T08:13:39.450Z,32.80
2019-04-27T08:16:18.342Z,33.70
2019-04-27T08:18:52.514Z,38.35
2019-04-27T08:21:24.567Z,36.25
2019-04-27T08:23:58.655Z,38.13
2019-04-27T08:26:41.706Z,37.63
2019-04-27T08:29:48.778Z,33.85
2019-04-27T08:32:19.473Z,35.40
2019-04-27T08:34:54.403Z,35.23
2019-04-27T08:37:30.341Z,34.80
2019-04-27T08:40:06.152Z,34.50
2019-04-27T08:42:33.143Z,33.65
2019-04-27T08:45:02.961Z,38.15
2019-04-27T08:47:45.097Z,35.45
2019-04-27T08:50:15.075Z,36.45
2019-04-27T08:53:05.487Z,41.25
2019-04-27T08:55:22.566Z,35.35
2019-04-27T08:58:02.081Z,42.17
2019-04-27T09:00:29.866Z,35.40
2019-04-27T09:02:59.634Z,32.93
2019-04-27T09:05:30.595Z,33.28
2019-04-27T09:08:29.924Z,31.30
2019-04-27T09:11:20.532Z,28.27
2019-04-27T09:14:11.393Z,34.38
2019-04-27T09:17:05.994Z,28.15
2019-04-27T09:19:42.178Z,29.18
2019-04-27T09:22:15.884Z,28.02
2019-04-27T09:24:42.826Z,27.05
2019-04-27T09:27:12.419Z,34.85
2019-04-27T09:29:42.064Z,36.95
2019-04-27T09:32:11.681Z,35.45
2019-04-27T09:34:42.914Z,30.68
2019-04-27T09:37:13.877Z,33.75
2019-04-27T09:39:43.632Z,37.20
2019-04-27T09:42:13.180Z,29.23
2019-04-27T09:44:42.732Z,34.35
2019-04-27T09:47:12.194Z,34.35
2019-04-27T09:49:45.954Z,32.63
2019-04-27T09:52:24.432Z,36.40
2019-04-27T09:54:48.190Z,34.73
2019-04-27T09:57:17.776Z,28.98
2019-04-27T09:59:47.342Z,33.95
2019-04-27T10:02:16.829Z,29.27
2019-04-27T10:04:46.366Z,38.28
2019-04-27T10:07:16.884Z,35.92
2019-04-27T10:09:47.489Z,35.38
2019-04-27T10:12:17.298Z,34.45
2019-04-27T10:14:47.759Z,30.90
2019-04-27T10:17:17.363Z,33.30
2019-04-27T10:19:48.732Z,31.85
2019-04-27T10:22:18.337Z,29.27
2019-04-27T10:24:47.834Z,28.85
2019-04-27T10:27:17.463Z,25.57
2019-04-27T10:29:47.028Z,27.10
2019-04-27T10:32:16.581Z,30.95
2019-04-27T10:34:49.068Z,27.10
2019-04-27T10:37:18.734Z,27.52
2019-04-27T10:39:50.294Z,28.30
2019-04-27T10:42:19.585Z,28.25
2019-04-27T10:44:49.152Z,33.40
2019-04-27T10:47:18.663Z,27.17
2019-04-27T10:49:48.588Z,27.05
2019-04-27T10:52:18.040Z,24.18
2019-04-27T10:54:48.014Z,25.97
2019-04-27T10:57:17.548Z,26.35
2019-04-27T10:59:47.172Z,31.25
2019-04-27T11:02:16.661Z,25.57
2019-04-27T11:05:03.908Z,25.37
2019-04-27T11:07:36.410Z,26.68
2019-04-27T11:10:07.687Z,23.90
2019-04-27T11:12:37.450Z,22.60
2019-04-27T11:15:08.339Z,26.17
2019-04-27T11:17:37.797Z,29.37
2019-04-27T11:20:07.909Z,26.77
2019-04-27T11:22:39.145Z,24.67
2019-04-27T11:25:09.453Z,25.72
2019-04-27T11:27:38.993Z,24.35
2019-04-27T11:30:09.928Z,26.07
2019-04-27T11:32:40.028Z,25.57
2019-04-27T11:35:31.660Z,25.05
2019-04-27T11:38:01.402Z,29.75
2019-04-27T11:40:31.101Z,26.60
2019-04-27T11:43:01.934Z,26.20
2019-04-27T11:45:33.302Z,29.48
2019-04-27T11:48:03.017Z,24.77
2019-04-27T11:50:32.519Z,24.15
2019-04-27T11:53:02.006Z,28.07
2019-04-27T11:55:31.655Z,25.45
2019-04-27T11:58:01.157Z,28.32
2019-04-27T12:00:30.831Z,25.17
2019-04-27T12:03:00.374Z,21.68
2019-04-27T12:05:29.835Z,21.75
2019-04-27T12:07:59.686Z,23.42
2019-04-27T12:10:29.207Z,26.07
2019-04-27T12:12:58.689Z,21.75
2019-04-27T12:15:28.279Z,24.02
2019-04-27T12:17:57.789Z,23.92
2019-04-27T12:20:30.616Z,21.75
2019-04-27T12:23:00.127Z,23.80
2019-04-27T12:25:29.654Z,24.45
2019-04-27T12:28:27.415Z,24.87
2019-04-27T12:31:09.594Z,25.55
2019-04-27T12:33:39.149Z,29.98
2019-04-27T12:36:09.099Z,21.82
2019-04-27T12:38:38.719Z,24.57
2019-04-27T12:41:08.353Z,22.30
2019-04-27T12:43:37.824Z,17.87
2019-04-27T12:46:07.827Z,22.20
2019-04-27T12:48:37.562Z,25.77
2019-04-27T12:51:07.266Z,23.70
2019-04-27T12:53:50.591Z,23.25
2019-04-27T12:56:35.662Z,26.55
2019-04-27T12:59:15.942Z,23.42
2019-04-27T13:01:46.252Z,24.60
2019-04-27T13:04:16.350Z,23.75
2019-04-27T13:06:46.998Z,27.02
2019-04-27T13:09:17.355Z,24.30
2019-04-27T13:11:46.994Z,27.40
2019-04-27T13:14:16.648Z,25.30
2019-04-27T13:16:47.611Z,24.07
2019-04-27T13:19:17.688Z,25.17
2019-04-27T13:21:47.259Z,26.33
2019-04-27T13:24:16.988Z,27.48
2019-04-27T13:26:46.615Z,23.98
2019-04-27T13:29:16.768Z,28.12
2019-04-27T13:31:46.538Z,27.77
2019-04-27T13:34:16.345Z,29.00
2019-04-27T13:36:45.962Z,28.60
2019-04-27T13:39:16.269Z,29.15
2019-04-27T13:41:46.426Z,27.65
2019-04-27T13:44:16.409Z,27.37
2019-04-27T13:47:20.146Z,30.40
2019-04-27T13:50:17.665Z,31.15
2019-04-27T13:52:47.479Z,30.00
2019-04-27T13:55:17.040Z,28.45
2019-04-27T13:57:50.491Z,26.57
2019-04-27T14:00:18.214Z,29.92
2019-04-27T14:02:47.803Z,29.92
2019-04-27T14:05:17.484Z,27.58
2019-04-27T14:07:47.033Z,25.75
2019-04-27T14:10:20.261Z,29.07
2019-04-27T14:12:49.302Z,27.77
2019-04-27T14:15:18.824Z,28.77
2019-04-27T14:17:49.972Z,32.98
2019-04-27T14:20:19.784Z,28.27
2019-04-27T14:22:49.845Z,32.48
2019-04-27T14:25:19.387Z,31.75
2019-04-27T14:27:48.948Z,34.98
2019-04-27T14:30:19.934Z,29.50
2019-04-27T14:32:49.474Z,31.02
2019-04-27T14:35:19.016Z,35.58
2019-04-27T14:37:50.235Z,28.55
2019-04-27T14:40:19.890Z,30.57
2019-04-27T14:42:50.580Z,29.95
2019-04-27T14:45:20.723Z,26.80
2019-04-27T14:47:50.288Z,27.22
2019-04-27T14:50:19.812Z,25.05
2019-04-27T14:52:49.345Z,25.92
2019-04-27T14:55:18.877Z,26.15
2019-04-27T14:57:49.560Z,24.95
2019-04-27T15:00:21.292Z,26.85
2019-04-27T15:02:50.838Z,24.07
2019-04-27T15:05:20.355Z,33.75
2019-04-27T15:07:49.827Z,26.35
2019-04-27T15:10:19.393Z,25.10
2019-04-27T15:12:49.083Z,25.82
2019-04-27T15:15:18.669Z,26.52
2019-04-27T15:17:49.432Z,23.92
2019-04-27T15:20:27.265Z,21.27
2019-04-27T15:22:57.133Z,23.70
2019-04-27T15:25:27.337Z,22.77
2019-04-27T15:28:01.397Z,26.30
2019-04-27T15:30:44.802Z,21.40
2019-04-27T15:33:46.798Z,26.12
2019-04-27T15:36:25.938Z,24.37
2019-04-27T15:38:58.508Z,29.87
2019-04-27T15:41:34.031Z,30.60
2019-04-27T15:44:05.885Z,32.45
2019-04-27T15:46:35.040Z,31.70
2019-04-27T15:49:09.618Z,28.30
2019-04-27T15:51:38.097Z,25.82
2019-04-27T15:54:07.336Z,26.48
2019-04-27T15:56:37.073Z,28.70
2019-04-27T15:59:08.152Z,29.82
2019-04-27T16:01:39.606Z,30.40
2019-04-27T16:04:11.129Z,30.55
2019-04-27T16:06:42.950Z,27.93
2019-04-27T16:09:16.159Z,30.45
2019-04-27T16:11:50.232Z,31.57
2019-04-27T16:14:18.437Z,29.20
2019-04-27T16:16:48.750Z,31.33
2019-04-27T16:19:18.522Z,31.87
2019-04-27T16:21:54.131Z,28.92
2019-04-27T16:24:21.223Z,29.37
2019-04-27T16:26:52.217Z,29.55
2019-04-27T16:29:23.119Z,27.48
2019-04-27T16:31:54.081Z,27.93
2019-04-27T16:34:23.573Z,28.60
2019-04-27T16:36:53.266Z,28.70
2019-04-27T16:39:22.898Z,32.55
2019-04-27T16:41:52.905Z,33.05
2019-04-27T16:44:22.485Z,28.95
2019-04-27T16:46:52.202Z,30.85
2019-04-27T16:49:21.715Z,31.35
2019-04-27T16:51:51.349Z,35.92
2019-04-27T16:54:21.399Z,26.48
2019-04-27T16:57:02.035Z,28.52
2019-04-27T16:59:39.731Z,27.77
2019-04-27T17:01:53.481Z,27.50
2019-04-27T17:04:23.031Z,26.70
2019-04-27T17:06:52.660Z,28.92
2019-04-27T17:09:22.170Z,29.23
2019-04-27T17:11:51.878Z,30.88
2019-04-27T17:14:43.553Z,36.95
2019-04-27T17:17:29.091Z,45.15
2019-04-27T17:20:01.045Z,45.52
2019-04-27T17:22:30.865Z,49.15
2019-04-27T17:25:00.409Z,50.45
2019-04-27T17:27:38.244Z,55.92
2019-04-27T17:30:09.677Z,47.48
2019-04-27T17:32:54.835Z,53.75
2019-04-27T17:35:24.556Z,51.23
2019-04-27T17:37:54.459Z,42.27
2019-04-27T17:40:24.231Z,36.25
2019-04-27T17:42:53.769Z,35.28
2019-04-27T17:45:23.265Z,31.40
2019-04-27T17:47:52.830Z,29.12
2019-04-27T17:50:25.192Z,32.65
2019-04-27T17:52:55.249Z,32.58
2019-04-27T17:55:25.415Z,30.20
2019-04-27T17:57:59.976Z,35.90
2019-04-27T18:00:28.122Z,31.87
2019-04-27T18:02:58.021Z,27.42
2019-04-27T18:05:28.541Z,30.48
2019-04-27T18:07:58.219Z,32.23
2019-04-27T18:10:28.202Z,30.50
2019-04-27T18:12:58.256Z,37.03
2019-04-27T18:15:28.725Z,34.92
2019-04-27T18:18:00.876Z,29.80
2019-04-27T18:20:30.370Z,33.88
2019-04-27T18:23:09.813Z,30.82
2019-04-27T18:25:43.480Z,31.40
2019-04-27T18:28:15.914Z,36.50
2019-04-27T18:31:04.606Z,33.28
2019-04-27T18:33:37.082Z,35.20
2019-04-27T18:36:09.322Z,38.28
2019-04-27T18:38:37.281Z,31.25
2019-04-27T18:41:11.541Z,35.83
2019-04-27T18:43:45.880Z,33.80
2019-04-27T18:46:09.918Z,39.20
2019-04-27T18:49:01.266Z,39.03
2019-04-27T18:51:40.346Z,37.85
2019-04-27T18:54:09.895Z,42.13
2019-04-27T18:56:41.634Z,39.45
2019-04-27T18:59:10.636Z,46.00
2019-04-27T19:01:40.274Z,41.02
2019-04-27T19:04:09.758Z,39.85
2019-04-27T19:06:39.267Z,39.05
2019-04-27T19:09:09.349Z,36.75
2019-04-27T19:11:38.822Z,36.23
2019-04-27T19:14:08.488Z,35.10
2019-04-27T19:16:38.491Z,33.25
2019-04-27T19:19:08.651Z,36.45
2019-04-27T19:21:39.254Z,33.70
2019-04-27T19:24:09.087Z,37.35
2019-04-27T19:26:48.483Z,33.83
2019-04-27T19:29:24.158Z,42.10
2019-04-27T19:31:56.280Z,47.10
2019-04-27T19:34:25.868Z,46.77
2019-04-27T19:36:55.351Z,46.53
2019-04-27T19:39:26.027Z,42.30
2019-04-27T19:42:00.316Z,44.77
2019-04-27T19:44:28.979Z,47.58
2019-04-27T19:46:59.996Z,39.75
2019-04-27T19:49:31.588Z,44.27
2019-04-27T19:52:00.377Z,34.70
2019-04-27T19:54:30.360Z,35.92
2019-04-27T19:56:59.901Z,36.00
2019-04-27T19:59:34.307Z,34.98
2019-04-27T20:02:08.764Z,36.65
2019-04-27T20:04:39.593Z,32.08
2019-04-27T20:07:10.663Z,36.45
2019-04-27T20:09:54.631Z,34.27
2019-04-27T20:12:24.341Z,32.03
2019-04-27T20:14:57.022Z,32.93
2019-04-27T20:17:31.211Z,32.65
2019-04-27T20:20:01.315Z,29.32
2019-04-27T20:22:30.737Z,31.15
2019-04-27T20:25:01.906Z,30.77
2019-04-27T20:27:45.201Z,32.08
2019-04-27T20:30:03.189Z,32.05
2019-04-27T20:32:33.110Z,29.65
2019-04-27T20:35:02.603Z,28.95
2019-04-27T20:37:32.147Z,26.20
2019-04-27T20:40:02.053Z,27.40
2019-04-27T20:42:31.701Z,25.10
2019-04-27T20:45:02.133Z,29.72
2019-04-27T20:47:32.175Z,27.27
2019-04-27T20:50:01.763Z,25.48
2019-04-27T20:52:59.270Z,26.30
2019-04-27T20:55:29.142Z,31.00
2019-04-27T20:58:02.107Z,24.75
2019-04-27T21:00:31.793Z,25.68
2019-04-27T21:03:19.950Z,24.50
2019-04-27T21:06:07.289Z,22.37
2019-04-27T21:08:37.935Z,25.27
2019-04-27T21:11:07.429Z,24.35
2019-04-27T21:13:36.998Z,27.87
2019-04-27T21:16:06.463Z,27.95
2019-04-27T21:18:35.926Z,27.10
2019-04-27T21:21:05.469Z,22.73
2019-04-27T21:23:35.025Z,25.92
2019-04-27T21:26:04.528Z,20.37
2019-04-27T21:28:34.185Z,23.85
2019-04-27T21:31:03.669Z,23.40
2019-04-27T21:33:33.182Z,23.38
2019-04-27T21:36:02.985Z,20.12
2019-04-27T21:38:32.559Z,24.60
2019-04-27T21:41:02.140Z,24.35
2019-04-27T21:43:32.725Z,21.80
2019-04-27T21:46:02.509Z,22.40
2019-04-27T21:48:32.052Z,20.77
2019-04-27T21:51:01.627Z,24.18
2019-04-27T21:53:53.194Z,23.15
2019-04-27T21:56:22.798Z,26.12
2019-04-27T21:58:52.297Z,22.80
2019-04-27T22:01:41.673Z,25.00
2019-04-27T22:04:11.469Z,30.25
2019-04-27T22:06:41.580Z,25.90
2019-04-27T22:09:12.906Z,27.32
2019-04-27T22:11:42.681Z,25.52
2019-04-27T22:14:12.238Z,25.60
2019-04-27T22:16:42.021Z,28.83
2019-04-27T22:19:12.046Z,26.12
2019-04-27T22:21:42.067Z,23.62
2019-04-27T22:24:23.239Z,22.40
2019-04-27T22:26:52.730Z,26.62
2019-04-27T22:29:22.292Z,25.15
2019-04-27T22:31:51.886Z,27.15
2019-04-27T22:34:22.109Z,24.65
2019-04-27T22:36:51.612Z,26.93
2019-04-27T22:39:50.950Z,24.00
2019-04-27T22:42:42.012Z,24.35
2019-04-27T22:45:16.537Z,29.57
2019-04-27T22:47:46.079Z,25.05
2019-04-27T22:50:15.597Z,27.52
2019-04-27T22:52:45.246Z,28.12
2019-04-27T22:55:14.783Z,26.23
2019-04-27T22:57:56.273Z,29.63
2019-04-27T23:00:37.185Z,31.48
2019-04-27T23:03:10.883Z,34.10
2019-04-27T23:05:40.512Z,29.65
2019-04-27T23:08:11.301Z,31.73
2019-04-27T23:10:40.810Z,34.63
2019-04-27T23:13:11.662Z,34.65
2019-04-27T23:15:44.634Z,33.20
2019-04-27T23:18:14.138Z,32.63
2019-04-27T23:20:43.819Z,33.02
2019-04-27T23:23:13.329Z,31.80
2019-04-27T23:25:42.819Z,28.38
2019-04-27T23:28:12.429Z,31.62
2019-04-27T23:30:51.602Z,32.03
2019-04-27T23:33:21.190Z,30.10
2019-04-27T23:35:51.663Z,29.00
2019-04-27T23:38:21.227Z,25.90
2019-04-27T23:40:51.759Z,26.30
2019-04-27T23:43:21.456Z,25.35
2019-04-27T23:45:51.664Z,25.25
2019-04-27T23:48:22.681Z,29.65
2019-04-27T23:50:55.079Z,27.77
2019-04-27T23:53:27.515Z,25.97
2019-04-27T23:55:57.368Z,28.47
2019-04-27T23:58:26.862Z,24.45
